Time;durP1;ratioP1;P1;durP2;ratioP2;P2;SDS_P1;SDS_P2;PMS_P1;PMS_P2;Temp;Humidity;BMP_temperature;BMP_pressure;BME280_temperature;BME280_humidity;BME280_pressure;Samples;Min_cycle;Max_cycle;Signal;HPM_P1;HPM_P2
2022/09/12 00:01:56;;;;;;;31.02;24.85;;;14.80;99.90;;;;;;5082080;28;20867;-65
2022/09/12 00:04:22;;;;;;;29.35;24.33;;;14.80;99.90;;;;;;5082714;28;20040;-65
2022/09/12 00:06:48;;;;;;;27.63;23.05;;;14.70;99.90;;;;;;5086688;28;20087;-64
2022/09/12 00:09:13;;;;;;;26.50;23.00;;;14.70;99.90;;;;;;5073289;28;20075;-65
2022/09/12 00:11:43;;;;;;;25.95;23.25;;;14.70;99.90;;;;;;5086385;28;20056;-65
2022/09/12 00:14:11;;;;;;;28.38;25.27;;;14.70;99.90;;;;;;5087808;28;20047;-64
2022/09/12 00:16:37;;;;;;;;;;;14.70;99.90;;;;;;5088417;28;20075;-64
2022/09/12 00:19:04;;;;;;;31.15;26.20;;;14.60;99.90;;;;;;5086769;28;19924;-65
2022/09/12 00:21:33;;;;;;;28.20;25.05;;;14.60;99.90;;;;;;5083841;28;20093;-64
2022/09/12 00:23:59;;;;;;;37.95;23.80;;;14.50;99.90;;;;;;5087533;28;20040;-64
2022/09/12 00:26:25;;;;;;;22.02;19.67;;;14.40;99.90;;;;;;5087402;28;20040;-64
2022/09/12 00:28:51;;;;;;;17.30;15.35;;;14.30;99.90;;;;;;5087941;28;20050;-64
2022/09/12 00:31:22;;;;;;;16.58;15.07;;;14.30;99.90;;;;;;5087488;28;20418;-64
2022/09/12 00:33:48;;;;;;;17.77;16.08;;;14.20;99.90;;;;;;5086789;28;20063;-64
2022/09/12 00:36:16;;;;;;;25.33;20.83;;;14.20;99.90;;;;;;5085059;28;20534;-65
2022/09/12 00:38:43;;;;;;;19.40;17.45;;;14.20;99.90;;;;;;5084116;28;20105;-64
2022/09/12 00:41:20;;;;;;;14.20;11.55;;;14.20;99.90;;;;;;5087297;28;20040;-64
2022/09/12 00:43:52;;;;;;;16.67;15.07;;;14.10;99.90;;;;;;5085734;28;20047;-64
2022/09/12 00:46:26;;;;;;;14.93;13.52;;;14.00;99.90;;;;;;5085226;28;20455;-64
2022/09/12 00:49:04;;;;;;;20.25;15.25;;;14.00;99.90;;;;;;5087158;28;20048;-64
2022/09/12 00:51:31;;;;;;;19.05;17.30;;;13.90;99.90;;;;;;5087354;28;20094;-64
2022/09/12 00:54:00;;;;;;;16.95;15.45;;;13.80;99.90;;;;;;5082949;28;20059;-64
2022/09/12 00:56:26;;;;;;;20.52;18.45;;;13.80;99.90;;;;;;5086555;28;20044;-64
2022/09/12 00:59:07;;;;;;;21.00;18.80;;;13.80;99.90;;;;;;5086755;28;20079;-64
2022/09/12 01:01:33;;;;;;;21.40;19.40;;;13.70;99.90;;;;;;5087363;28;20104;-64
2022/09/12 01:04:00;;;;;;;21.02;18.83;;;13.70;99.90;;;;;;5087564;28;20044;-64
2022/09/12 01:06:38;;;;;;;21.38;19.23;;;13.60;99.90;;;;;;5086807;28;20505;-64
2022/09/12 01:09:07;;;;;;;22.10;19.90;;;13.60;99.90;;;;;;5086110;28;20131;-64
2022/09/12 01:11:38;;;;;;;18.45;16.83;;;13.50;99.90;;;;;;5091090;28;20071;-65
2022/09/12 01:14:04;;;;;;;16.67;15.27;;;13.50;99.90;;;;;;5086934;28;20051;-65
2022/09/12 01:16:36;;;;;;;17.90;16.42;;;13.50;99.90;;;;;;5085381;28;20044;-65
2022/09/12 01:19:24;;;;;;;20.25;18.17;;;13.50;99.90;;;;;;5091186;28;20055;-65
2022/09/12 01:22:25;;;;;;;16.65;15.23;;;13.50;99.90;;;;;;5089590;28;20044;-65
2022/09/12 01:25:21;;;;;;;20.20;18.08;;;13.40;99.90;;;;;;5079423;28;20421;-65
2022/09/12 01:28:17;;;;;;;20.30;18.33;;;13.40;99.90;;;;;;5077719;28;20059;-65
2022/09/12 01:31:04;;;;;;;23.88;19.35;;;13.40;99.90;;;;;;5089874;28;20123;-65
2022/09/12 01:33:51;;;;;;;25.95;23.17;;;13.40;99.90;;;;;;5072218;28;20102;-64
2022/09/12 01:36:38;;;;;;;30.98;25.33;;;13.40;99.90;;;;;;5076722;28;20048;-64
2022/09/12 01:39:19;;;;;;;23.90;21.25;;;13.40;99.90;;;;;;5089621;28;20432;-65
2022/09/12 01:42:01;;;;;;;29.08;25.80;;;13.40;99.90;;;;;;5089241;28;20122;-66
2022/09/12 01:44:57;;;;;;;33.88;28.90;;;13.40;99.90;;;;;;5087771;28;20099;-66
2022/09/12 01:47:38;;;;;;;31.73;28.33;;;13.40;99.90;;;;;;5089033;28;20797;-66
2022/09/12 01:50:28;;;;;;;33.88;29.90;;;13.30;99.90;;;;;;5085339;28;20417;-66
2022/09/12 01:53:00;;;;;;;19.10;17.08;;;13.30;99.90;;;;;;5086330;28;20506;-66
2022/09/12 01:55:42;;;;;;;17.58;15.77;;;13.30;99.90;;;;;;5090424;28;20044;-66
2022/09/12 01:58:13;;;;;;;14.27;12.98;;;13.20;99.90;;;;;;5075056;28;20043;-66
2022/09/12 02:00:58;;;;;;;18.35;16.55;;;13.10;99.90;;;;;;5086845;28;20036;-66
2022/09/12 02:03:28;;;;;;;23.83;21.40;;;13.10;99.90;;;;;;5088691;28;20074;-64
2022/09/12 02:06:00;;;;;;;29.38;24.77;;;13.00;99.90;;;;;;5090336;28;20127;-65
2022/09/12 02:09:05;;;;;;;26.98;24.10;;;13.10;99.90;;;;;;5083241;28;20089;-64
2022/09/12 02:11:34;;;;;;;28.60;24.70;;;13.10;99.90;;;;;;5046438;28;20086;-65
2022/09/12 02:14:09;;;;;;;37.10;25.52;;;13.10;99.90;;;;;;5078676;28;20060;-66
2022/09/12 02:17:06;;;;;;;19.70;17.70;;;13.10;99.90;;;;;;5088847;28;20040;-66
2022/09/12 02:19:46;;;;;;;17.10;15.50;;;13.00;99.90;;;;;;5090195;28;20047;-66
2022/09/12 02:22:16;;;;;;;26.40;23.70;;;13.00;99.90;;;;;;5089083;28;20309;-66
2022/09/12 02:24:46;;;;;;;35.85;27.42;;;13.00;99.90;;;;;;5084336;28;20142;-65
2022/09/12 02:27:36;;;;;;;41.97;29.80;;;13.00;99.90;;;;;;5085646;28;20043;-66
2022/09/12 02:30:04;;;;;;;34.15;28.83;;;13.00;99.90;;;;;;5089907;28;20040;-66
2022/09/12 02:32:54;;;;;;;38.67;31.92;;;12.90;99.90;;;;;;5089281;28;20043;-66
2022/09/12 02:35:35;;;;;;;38.00;31.23;;;13.00;99.90;;;;;;5088598;28;20439;-66
2022/09/12 02:38:01;;;;;;;39.85;32.00;;;12.90;99.90;;;;;;5088830;28;20055;-65
2022/09/12 02:40:29;;;;;;;36.97;32.08;;;12.90;99.90;;;;;;5089454;28;20044;-66
2022/09/12 02:42:55;;;;;;;33.03;29.33;;;12.90;99.90;;;;;;5087145;28;20135;-66
2022/09/12 02:45:22;;;;;;;37.13;32.47;;;12.90;99.90;;;;;;5088777;28;20043;-66
2022/09/12 02:48:13;;;;;;;38.33;31.50;;;12.90;99.90;;;;;;5088289;28;20111;-66
2022/09/12 02:50:39;;;;;;;26.95;19.05;;;12.90;99.90;;;;;;5081407;28;20055;-65
2022/09/12 02:53:07;;;;;;;28.45;18.15;;;12.70;99.90;;;;;;5088379;28;20044;-66
2022/09/12 02:55:35;;;;;;;24.48;21.90;;;12.50;99.90;;;;;;5089438;28;20055;-65
2022/09/12 02:58:02;;;;;;;;;;;12.50;99.90;;;;;;5090416;28;20096;-66
2022/09/12 03:00:34;;;;;;;21.10;19.10;;;12.50;99.90;;;;;;5092561;28;20002;-66
2022/09/12 03:03:11;;;;;;;23.23;20.90;;;12.50;99.90;;;;;;5089278;28;20189;-65
2022/09/12 03:05:50;;;;;;;25.02;22.52;;;12.50;99.90;;;;;;5091671;28;20044;-65
2022/09/12 03:08:34;;;;;;;27.70;24.02;;;12.50;99.90;;;;;;5089497;28;20528;-65
2022/09/12 03:11:12;;;;;;;28.90;24.52;;;12.50;99.90;;;;;;5083408;28;20048;-65
2022/09/12 03:14:00;;;;;;;;;;;12.50;99.90;;;;;;5081670;28;20047;-66
2022/09/12 03:16:38;;;;;;;28.60;24.55;;;12.50;99.90;;;;;;5041984;28;19920;-65
2022/09/12 03:19:18;;;;;;;20.43;18.33;;;12.50;99.90;;;;;;5088900;28;20101;-66
2022/09/12 03:22:05;;;;;;;17.65;16.02;;;12.50;99.90;;;;;;5088434;28;20084;-66
2022/09/12 03:25:01;;;;;;;17.27;15.75;;;12.30;99.90;;;;;;5086055;28;20177;-65
2022/09/12 03:27:39;;;;;;;15.75;14.35;;;12.20;99.90;;;;;;5087636;28;20093;-65
2022/09/12 03:30:05;;;;;;;;;;;12.20;99.90;;;;;;5079826;28;20044;-65
2022/09/12 03:32:46;;;;;;;14.98;13.68;;;12.20;99.90;;;;;;5085006;28;19942;-65
2022/09/12 03:35:14;;;;;;;18.70;16.80;;;12.10;99.90;;;;;;5083177;28;20051;-67
2022/09/12 03:37:40;;;;;;;19.95;17.83;;;12.10;99.90;;;;;;5083057;28;20044;-66
2022/09/12 03:40:08;;;;;;;27.55;19.63;;;12.10;99.90;;;;;;5084519;28;20048;-65
2022/09/12 03:42:33;;;;;;;75.27;24.33;;;12.00;99.90;;;;;;5085920;28;20090;-66
2022/09/12 03:44:59;;;;;;;27.98;22.48;;;12.00;99.90;;;;;;5085070;28;20297;-66
2022/09/12 03:47:25;;;;;;;21.27;19.25;;;11.90;99.90;;;;;;5087152;28;20044;-66
2022/09/12 03:49:51;;;;;;;18.77;17.10;;;11.90;99.90;;;;;;5087739;28;20044;-67
2022/09/12 03:52:17;;;;;;;18.30;16.55;;;11.90;99.90;;;;;;5087549;28;20536;-66
2022/09/12 03:54:43;;;;;;;17.95;16.30;;;11.90;99.90;;;;;;5076607;28;20079;-66
2022/09/12 03:57:09;;;;;;;20.20;18.25;;;11.90;99.90;;;;;;5087374;28;20468;-66
2022/09/12 03:59:34;;;;;;;27.77;22.13;;;11.90;99.90;;;;;;5087513;28;20050;-66
2022/09/12 04:02:00;;;;;;;20.50;18.40;;;11.80;99.90;;;;;;5082012;28;20048;-66
2022/09/12 04:04:26;;;;;;;22.38;19.88;;;11.80;99.90;;;;;;5088974;28;20059;-67
2022/09/12 04:06:52;;;;;;;20.65;18.42;;;11.90;99.90;;;;;;5095478;28;20059;-67
2022/09/12 04:09:18;;;;;;;22.95;19.65;;;11.90;99.90;;;;;;5087769;28;20400;-66
2022/09/12 04:11:43;;;;;;;23.00;20.60;;;11.90;99.90;;;;;;5088122;28;20082;-67
2022/09/12 04:14:09;;;;;;;23.33;21.10;;;11.80;99.90;;;;;;5086902;28;20052;-67
2022/09/12 04:16:35;;;;;;;25.50;22.25;;;11.80;99.90;;;;;;5087439;28;20079;-67
2022/09/12 04:19:00;;;;;;;22.90;20.35;;;11.80;99.90;;;;;;5081930;28;20116;-66
2022/09/12 04:21:26;;;;;;;28.75;24.40;;;11.80;99.90;;;;;;5086050;28;20040;-67
2022/09/12 04:23:53;;;;;;;29.67;24.95;;;11.80;99.90;;;;;;5081656;28;20131;-67
2022/09/12 04:26:19;;;;;;;27.83;24.58;;;11.70;99.90;;;;;;5086311;28;20039;-66
2022/09/12 04:28:45;;;;;;;34.15;27.63;;;11.80;99.90;;;;;;5087296;28;20036;-66
2022/09/12 04:31:16;;;;;;;42.85;27.90;;;11.80;99.90;;;;;;5086915;28;20040;-66
2022/09/12 04:33:43;;;;;;;40.40;30.38;;;11.80;99.90;;;;;;5079598;28;20049;-66
2022/09/12 04:36:13;;;;;;;44.80;33.35;;;11.70;99.90;;;;;;5080753;28;20040;-66
2022/09/12 04:38:38;;;;;;;44.08;33.53;;;11.70;99.90;;;;;;5086907;28;20052;-66
2022/09/12 04:41:22;;;;;;;39.50;30.30;;;11.70;99.90;;;;;;5086976;28;20123;-66
2022/09/12 04:43:52;;;;;;;40.97;31.67;;;11.70;99.90;;;;;;5085650;28;20115;-66
2022/09/12 04:46:19;;;;;;;40.03;29.92;;;11.70;99.90;;;;;;5081103;28;20045;-66
2022/09/12 04:48:45;;;;;;;39.28;30.70;;;11.80;99.90;;;;;;5090947;28;20462;-66
2022/09/12 04:51:14;;;;;;;45.15;29.33;;;11.70;99.90;;;;;;5086842;28;20139;-66
2022/09/12 04:53:41;;;;;;;43.75;32.50;;;11.70;99.90;;;;;;5090405;28;20036;-66
2022/09/12 04:56:09;;;;;;;48.35;33.53;;;11.70;99.90;;;;;;5085453;28;20040;-67
2022/09/12 04:58:36;;;;;;;49.65;34.47;;;11.70;99.90;;;;;;5074680;28;20072;-67
2022/09/12 05:01:05;;;;;;;49.72;35.15;;;11.70;99.90;;;;;;5085172;28;20052;-66
2022/09/12 05:03:31;;;;;;;39.80;29.85;;;11.70;99.90;;;;;;5090002;28;20056;-66
2022/09/12 05:05:56;;;;;;;38.97;28.48;;;11.70;99.90;;;;;;5090557;28;20044;-66
2022/09/12 05:08:22;;;;;;;44.00;31.23;;;11.70;99.90;;;;;;5090431;28;20036;-66
2022/09/12 05:10:49;;;;;;;40.25;29.75;;;11.70;99.90;;;;;;5090083;28;20484;-66
2022/09/12 05:13:15;;;;;;;47.10;31.58;;;11.70;99.90;;;;;;5088100;28;20048;-66
2022/09/12 05:15:40;;;;;;;37.80;28.27;;;11.70;99.90;;;;;;5090924;28;20071;-67
2022/09/12 05:18:06;;;;;;;40.05;30.77;;;11.80;99.90;;;;;;5089224;28;20047;-67
2022/09/12 05:20:35;;;;;;;53.63;32.38;;;11.80;99.90;;;;;;5088234;28;20127;-66
2022/09/12 05:23:00;;;;;;;43.42;31.38;;;11.90;99.90;;;;;;5090574;28;20040;-66
2022/09/12 05:25:26;;;;;;;50.60;36.40;;;12.00;99.90;;;;;;5090278;28;20431;-67
2022/09/12 05:27:52;;;;;;;54.88;35.53;;;12.10;99.90;;;;;;5088299;28;20040;-66
2022/09/12 05:30:18;;;;;;;45.22;33.25;;;12.20;99.90;;;;;;5082645;28;20526;-66
2022/09/12 05:32:43;;;;;;;35.05;28.15;;;12.30;99.90;;;;;;5090296;28;20043;-67
2022/09/12 05:35:10;;;;;;;37.30;28.63;;;12.30;99.90;;;;;;5089023;28;20040;-67
2022/09/12 05:37:36;;;;;;;42.28;32.08;;;12.30;99.90;;;;;;5089936;28;20047;-67
2022/09/12 05:40:06;;;;;;;50.60;34.78;;;12.30;99.90;;;;;;5088653;28;20052;-67
2022/09/12 05:42:32;;;;;;;52.20;34.33;;;12.40;99.90;;;;;;5090378;28;20052;-66
2022/09/12 05:44:58;;;;;;;69.90;35.65;;;12.50;99.90;;;;;;5090115;28;20693;-66
2022/09/12 05:47:23;;;;;;;49.58;35.90;;;12.60;99.90;;;;;;5084319;28;20043;-67
2022/09/12 05:49:50;;;;;;;60.90;40.92;;;12.70;99.90;;;;;;5089078;28;20040;-66
2022/09/12 05:52:16;;;;;;;70.03;43.45;;;12.70;99.90;;;;;;5088231;28;20076;-67
2022/09/12 05:54:41;;;;;;;74.07;43.88;;;12.80;99.90;;;;;;5089799;28;20124;-67
2022/09/12 05:57:07;;;;;;;48.13;34.03;;;12.90;99.90;;;;;;5089203;28;20047;-66
2022/09/12 05:59:33;;;;;;;61.53;40.10;;;13.00;99.90;;;;;;5089035;28;20040;-66
2022/09/12 06:01:59;;;;;;;60.45;42.00;;;13.00;99.90;;;;;;5092459;28;20886;-66
2022/09/12 06:04:25;;;;;;;70.90;44.53;;;13.10;99.90;;;;;;5084456;28;20185;-66
2022/09/12 06:06:51;;;;;;;64.88;43.58;;;13.20;99.90;;;;;;5089107;28;20054;-66
2022/09/12 06:09:17;;;;;;;69.55;46.17;;;13.30;99.90;;;;;;5088353;28;20831;-66
2022/09/12 06:11:44;;;;;;;65.05;44.50;;;13.40;99.90;;;;;;5089520;28;20040;-66
2022/09/12 06:14:12;;;;;;;77.63;48.75;;;13.40;99.90;;;;;;5089779;28;20485;-68
2022/09/12 06:16:38;;;;;;;78.25;49.17;;;13.50;99.90;;;;;;5089569;28;20054;-66
2022/09/12 06:19:15;;;;;;;78.35;51.40;;;13.60;99.90;;;;;;5088876;28;20040;-65
2022/09/12 06:21:41;;;;;;;79.38;51.67;;;13.60;99.90;;;;;;5086078;28;20412;-66
2022/09/12 06:24:06;;;;;;;86.13;52.28;;;13.60;99.90;;;;;;5085133;28;20035;-66
2022/09/12 06:26:32;;;;;;;80.30;49.33;;;13.70;99.90;;;;;;5083122;28;20076;-66
2022/09/12 06:28:59;;;;;;;73.97;48.83;;;13.70;99.90;;;;;;5081794;28;20158;-66
2022/09/12 06:31:28;;;;;;;74.68;48.85;;;13.80;99.90;;;;;;5086608;28;20940;-66
2022/09/12 06:33:56;;;;;;;79.00;50.17;;;13.80;99.90;;;;;;5077622;28;20499;-66
2022/09/12 06:36:25;;;;;;;82.68;54.75;;;13.80;99.90;;;;;;5088879;28;20701;-66
2022/09/12 06:39:08;;;;;;;86.45;54.30;;;13.90;99.90;;;;;;5087517;28;20044;-66
2022/09/12 06:41:34;;;;;;;81.82;52.55;;;14.00;99.90;;;;;;5088318;28;20048;-66
2022/09/12 06:44:01;;;;;;;91.93;55.40;;;14.00;99.90;;;;;;5089048;28;20036;-65
2022/09/12 06:46:27;;;;;;;98.18;58.50;;;14.10;99.90;;;;;;5082249;28;20059;-66
2022/09/12 06:48:54;;;;;;;95.50;57.58;;;14.10;99.90;;;;;;5084031;28;20041;-65
2022/09/12 06:51:20;;;;;;;88.85;56.45;;;14.20;99.90;;;;;;5083713;28;20044;-66
2022/09/12 06:53:47;;;;;;;93.50;55.95;;;14.20;99.90;;;;;;5084351;28;20487;-65
2022/09/12 06:56:15;;;;;;;100.38;57.95;;;14.30;99.90;;;;;;5089169;28;20058;-66
2022/09/12 06:58:42;;;;;;;;;;;14.30;99.90;;;;;;5075851;28;20119;-65
2022/09/12 07:01:08;;;;;;;91.30;58.95;;;14.40;99.90;;;;;;5085504;28;19920;-65
2022/09/12 07:03:36;;;;;;;100.55;57.05;;;14.40;99.90;;;;;;5080732;28;20508;-66
2022/09/12 07:06:11;;;;;;;102.20;59.75;;;14.50;99.90;;;;;;5084981;28;20059;-66
2022/09/12 07:08:38;;;;;;;102.10;62.53;;;14.50;99.90;;;;;;5084715;28;20098;-66
2022/09/12 07:11:08;;;;;;;94.43;58.58;;;14.60;99.90;;;;;;5085462;28;20097;-65
2022/09/12 07:13:33;;;;;;;101.90;59.75;;;14.60;99.90;;;;;;5092005;28;20039;-66
2022/09/12 07:16:04;;;;;;;100.28;60.15;;;14.70;99.90;;;;;;5087636;28;20044;-67
2022/09/12 07:18:30;;;;;;;103.95;62.83;;;14.80;99.90;;;;;;5082581;28;20044;-68
2022/09/12 07:20:58;;;;;;;106.60;62.67;;;14.90;99.90;;;;;;5084067;28;20067;-67
2022/09/12 07:23:24;;;;;;;110.40;63.60;;;14.90;99.90;;;;;;5081010;28;20048;-67
2022/09/12 07:25:53;;;;;;;107.75;60.05;;;15.00;99.90;;;;;;5088419;28;20032;-67
2022/09/12 07:28:19;;;;;;;104.85;61.22;;;15.10;99.90;;;;;;5083633;28;20048;-66
2022/09/12 07:30:45;;;;;;;108.05;62.88;;;15.10;99.90;;;;;;5084414;28;20048;-66
2022/09/12 07:33:11;;;;;;;94.85;59.30;;;15.20;99.90;;;;;;5088142;28;20591;-66
2022/09/12 07:35:36;;;;;;;98.05;58.13;;;15.20;99.90;;;;;;5087906;28;20139;-66
2022/09/12 07:38:02;;;;;;;91.18;56.53;;;15.30;99.90;;;;;;5087736;28;20572;-66
2022/09/12 07:40:28;;;;;;;96.85;58.28;;;15.30;99.90;;;;;;5087901;28;21045;-66
2022/09/12 07:42:54;;;;;;;102.30;58.35;;;15.30;99.90;;;;;;5086624;28;20059;-66
2022/09/12 07:45:19;;;;;;;104.32;60.92;;;15.40;99.90;;;;;;5087369;28;20039;-66
2022/09/12 07:47:45;;;;;;;101.72;56.65;;;15.50;99.90;;;;;;5087577;28;20047;-66
2022/09/12 07:50:10;;;;;;;99.28;58.70;;;15.50;99.90;;;;;;5087613;28;20063;-67
2022/09/12 07:52:36;;;;;;;89.45;55.95;;;15.60;99.90;;;;;;5087805;28;20047;-66
2022/09/12 07:55:02;;;;;;;87.35;51.78;;;15.60;99.90;;;;;;5086203;28;20478;-66
2022/09/12 07:57:28;;;;;;;91.30;54.97;;;15.70;99.90;;;;;;5086597;28;20040;-66
2022/09/12 07:59:54;;;;;;;96.35;52.88;;;15.80;99.90;;;;;;5087877;28;20098;-66
2022/09/12 08:02:20;;;;;;;84.47;53.08;;;15.90;99.90;;;;;;5086229;28;20048;-66
2022/09/12 08:04:46;;;;;;;86.13;51.00;;;16.00;99.90;;;;;;5087969;28;20123;-66
2022/09/12 08:07:12;;;;;;;81.75;49.25;;;16.20;99.90;;;;;;5086473;28;20051;-66
2022/09/12 08:09:38;;;;;;;72.72;45.10;;;16.30;99.90;;;;;;5087483;28;20048;-66
2022/09/12 08:12:04;;;;;;;67.13;46.05;;;16.50;99.90;;;;;;5086868;28;20078;-66
2022/09/12 08:14:29;;;;;;;64.45;41.30;;;16.60;99.90;;;;;;5087756;28;20083;-66
2022/09/12 08:16:55;;;;;;;64.38;41.35;;;16.60;99.90;;;;;;5087253;28;20040;-66
2022/09/12 08:19:21;;;;;;;67.65;42.75;;;16.60;99.90;;;;;;5090728;28;20126;-66
2022/09/12 08:21:47;;;;;;;56.17;36.72;;;16.60;99.90;;;;;;5091921;28;20051;-66
2022/09/12 08:24:13;;;;;;;56.88;36.17;;;16.70;99.90;;;;;;5091627;28;20040;-66
2022/09/12 08:26:39;;;;;;;49.97;34.45;;;16.70;99.90;;;;;;5090768;28;20075;-68
2022/09/12 08:29:04;;;;;;;52.20;32.40;;;16.70;99.90;;;;;;5083572;28;20132;-67
2022/09/12 08:31:35;;;;;;;45.40;30.63;;;16.70;99.90;;;;;;5089691;28;20805;-68
2022/09/12 08:34:02;;;;;;;50.13;30.98;;;16.80;99.90;;;;;;5091904;28;20544;-68
2022/09/12 08:36:28;;;;;;;44.03;30.70;;;16.90;99.90;;;;;;5090205;28;20411;-68
2022/09/12 08:39:20;;;;;;;56.88;28.30;;;16.90;99.90;;;;;;5090639;28;20305;-69
2022/09/12 08:41:54;;;;;;;42.40;27.30;;;17.00;99.90;;;;;;5087290;28;20127;-68
2022/09/12 08:45:04;;;;;;;39.45;27.83;;;17.10;99.90;;;;;;5086175;28;20041;-68
2022/09/12 08:47:32;;;;;;;47.47;27.95;;;17.10;99.90;;;;;;5007282;28;20042;-68
2022/09/12 08:50:09;;;;;;;38.55;26.20;;;17.20;99.90;;;;;;5077364;28;20079;-68
2022/09/12 08:52:52;;;;;;;38.58;26.58;;;17.30;99.90;;;;;;5090819;28;20062;-68
2022/09/12 08:55:38;;;;;;;37.33;25.25;;;17.40;99.90;;;;;;5085649;28;20055;-68
2022/09/12 08:58:19;;;;;;;34.85;26.27;;;17.40;99.90;;;;;;5090748;28;20123;-68
2022/09/12 09:00:53;;;;;;;38.08;25.55;;;17.50;99.90;;;;;;5087337;28;20315;-68
2022/09/12 09:03:30;;;;;;;34.45;23.05;;;17.60;99.90;;;;;;5079529;28;20052;-68
2022/09/12 09:06:21;;;;;;;35.35;24.55;;;17.60;99.90;;;;;;5085216;28;20940;-68
2022/09/12 09:08:46;;;;;;;35.88;22.70;;;17.70;99.90;;;;;;5084803;28;20052;-68
2022/09/12 09:11:31;;;;;;;36.78;23.60;;;17.70;99.90;;;;;;5086206;28;20036;-68
2022/09/12 09:17:10;;;;;;;43.85;25.52;;;17.90;99.90;;;;;;5085528;28;20052;-66
2022/09/12 09:19:43;;;;;;;34.85;25.25;;;17.90;99.90;;;;;;5089428;28;20044;-66
2022/09/12 09:22:27;;;;;;;42.88;28.08;;;18.00;99.90;;;;;;5089546;28;20044;-66
2022/09/12 09:25:00;;;;;;;40.25;26.70;;;18.10;99.90;;;;;;5088325;28;20088;-66
2022/09/12 09:27:34;;;;;;;48.97;30.65;;;18.20;99.90;;;;;;5091014;28;20047;-66
2022/09/12 09:30:01;;;;;;;63.63;36.55;;;18.30;99.90;;;;;;5088411;28;20046;-66
2022/09/12 09:32:33;;;;;;;63.80;38.15;;;18.50;99.90;;;;;;5088868;28;20610;-66
2022/09/12 09:35:23;;;;;;;55.65;35.65;;;18.70;99.90;;;;;;5089380;28;20040;-66
2022/09/12 09:38:15;;;;;;;63.92;37.35;;;18.80;99.90;;;;;;5075724;28;20185;-66
2022/09/12 09:41:00;;;;;;;63.72;38.22;;;18.80;99.90;;;;;;5088706;28;20044;-67
2022/09/12 09:43:27;;;;;;;64.38;39.63;;;18.90;99.90;;;;;;5085855;28;20185;-66
2022/09/12 09:45:55;;;;;;;68.95;39.35;;;19.00;99.90;;;;;;5088889;28;20051;-66
2022/09/12 09:48:30;;;;;;;78.75;44.35;;;19.10;99.90;;;;;;5082941;28;20040;-66
2022/09/12 09:50:59;;;;;;;68.70;43.30;;;19.10;99.90;;;;;;5090236;28;20036;-66
2022/09/12 09:53:36;;;;;;;74.93;44.28;;;19.20;99.90;;;;;;5088089;28;20127;-67
2022/09/12 09:56:09;;;;;;;75.63;46.50;;;19.40;99.90;;;;;;5076265;28;20408;-66
2022/09/12 09:58:35;;;;;;;73.57;44.50;;;19.40;99.90;;;;;;5088791;28;20067;-66
2022/09/12 10:01:11;;;;;;;76.10;46.40;;;19.50;99.90;;;;;;5075880;28;20514;-65
2022/09/12 10:03:38;;;;;;;68.28;43.60;;;19.60;99.90;;;;;;5090023;28;20059;-65
2022/09/12 10:06:25;;;;;;;80.82;44.78;;;19.80;99.90;;;;;;5089432;28;20040;-66
2022/09/12 10:09:04;;;;;;;85.43;46.03;;;19.90;99.90;;;;;;5089608;28;20044;-66
2022/09/12 10:11:31;;;;;;;72.82;41.65;;;20.10;99.90;;;;;;5089688;28;20147;-66
2022/09/12 10:14:00;;;;;;;68.20;41.55;;;20.40;99.90;;;;;;5089680;28;20157;-66
2022/09/12 10:16:47;;;;;;;80.15;44.78;;;20.60;99.90;;;;;;5088712;28;20043;-73
2022/09/12 10:19:26;;;;;;;;;;;20.70;99.90;;;;;;5089716;28;20489;-67
2022/09/12 10:21:54;;;;;;;63.63;38.25;;;20.80;99.90;;;;;;5087944;28;19930;-67
2022/09/12 10:24:47;;;;;;;82.63;39.58;;;21.10;99.90;;;;;;5089821;28;20058;-68
2022/09/12 10:27:22;;;;;;;70.50;41.92;;;21.40;99.90;;;;;;5074087;28;20040;-67
2022/09/12 10:30:02;;;;;;;64.55;37.55;;;21.60;99.90;;;;;;5086039;28;20063;-67
2022/09/12 10:32:37;;;;;;;56.72;37.22;;;21.80;99.90;;;;;;5085728;28;20044;-67
2022/09/12 10:35:07;;;;;;;57.75;34.17;;;22.00;99.90;;;;;;5088672;28;20036;-68
2022/09/12 10:37:40;;;;;;;63.65;36.03;;;22.10;99.90;;;;;;5088465;28;20117;-67
2022/09/12 10:40:20;;;;;;;66.20;38.35;;;22.20;99.90;;;;;;5088772;28;20035;-67
2022/09/12 10:42:50;;;;;;;49.22;32.88;;;22.20;99.90;;;;;;5082036;28;20108;-67
2022/09/12 10:45:27;;;;;;;50.45;32.55;;;22.30;99.90;;;;;;5086640;28;20051;-66
2022/09/12 10:47:58;;;;;;;51.55;31.50;;;22.50;99.90;;;;;;5088754;28;20514;-67
2022/09/12 10:50:29;;;;;;;58.50;34.85;;;22.60;99.90;;;;;;5088533;28;20044;-67
2022/09/12 10:53:17;;;;;;;42.53;27.25;;;22.70;99.90;;;;;;5087970;28;20101;-68
2022/09/12 10:56:04;;;;;;;42.40;29.00;;;22.80;99.90;;;;;;5086676;28;20567;-67
2022/09/12 10:58:35;;;;;;;49.47;30.08;;;23.00;99.90;;;;;;5087128;28;20044;-67
2022/09/12 11:01:47;;;;;;;45.72;30.25;;;23.10;99.90;;;;;;5086342;28;20133;-66
2022/09/12 11:04:28;;;;;;;48.95;28.85;;;23.30;99.90;;;;;;5086381;28;20051;-67
2022/09/12 11:07:26;;;;;;;46.83;30.33;;;23.40;99.90;;;;;;5087289;28;20044;-66
2022/09/12 11:10:25;;;;;;;48.08;28.45;;;23.50;99.90;;;;;;5086178;28;20821;-68
2022/09/12 11:13:05;;;;;;;49.33;30.25;;;23.50;99.90;;;;;;5089675;28;20724;-66
2022/09/12 11:15:51;;;;;;;43.72;27.60;;;23.50;99.90;;;;;;5095415;28;20079;-67
2022/09/12 11:18:42;;;;;;;41.47;26.77;;;23.70;99.90;;;;;;5087837;28;20040;-66
2022/09/12 11:21:38;;;;;;;39.45;26.25;;;23.80;99.90;;;;;;5088886;28;20710;-66
2022/09/12 11:24:25;;;;;;;51.28;29.98;;;24.00;99.90;;;;;;5087168;28;20448;-66
2022/09/12 11:27:17;;;;;;;44.47;28.20;;;24.10;99.90;;;;;;5083787;28;20044;-66
2022/09/12 11:29:50;;;;;;;38.72;25.17;;;24.20;99.90;;;;;;5086829;28;20076;-66
2022/09/12 11:32:42;;;;;;;38.13;25.27;;;24.40;99.90;;;;;;5083434;28;20190;-66
2022/09/12 11:35:16;;;;;;;40.85;25.58;;;24.40;99.90;;;;;;5082979;28;20036;-66
2022/09/12 11:37:50;;;;;;;40.08;26.73;;;24.40;99.90;;;;;;5086201;28;20071;-67
2022/09/12 11:40:21;;;;;;;56.45;33.35;;;24.50;99.90;;;;;;5086894;28;20164;-67
2022/09/12 11:42:50;;;;;;;45.05;28.02;;;24.50;99.90;;;;;;5087256;28;20052;-67
2022/09/12 11:45:27;;;;;;;41.72;27.67;;;24.50;99.90;;;;;;5085665;28;20037;-67
2022/09/12 11:47:58;;;;;;;42.38;25.17;;;24.50;99.90;;;;;;5086804;28;20070;-67
2022/09/12 11:50:28;;;;;;;40.33;22.80;;;24.60;99.90;;;;;;5087655;28;20492;-67
2022/09/12 11:53:02;;;;;;;36.60;24.50;;;24.60;99.90;;;;;;5085231;28;20051;-65
2022/09/12 11:55:38;;;;;;;35.35;22.48;;;24.70;99.90;;;;;;5084669;28;20124;-66
2022/09/12 11:58:06;;;;;;;41.15;24.08;;;24.70;99.90;;;;;;5080887;28;20808;-66
2022/09/12 12:00:50;;;;;;;37.08;22.85;;;24.70;99.90;;;;;;5087688;28;20097;-66
2022/09/12 12:03:30;;;;;;;33.92;23.80;;;24.70;99.90;;;;;;5084476;28;20050;-66
2022/09/12 12:06:14;;;;;;;37.35;21.75;;;24.60;99.90;;;;;;5099110;28;20443;-66
2022/09/12 12:08:43;;;;;;;29.73;21.48;;;24.60;99.90;;;;;;5087855;28;20059;-66
2022/09/12 12:11:12;;;;;;;43.03;25.33;;;24.60;99.90;;;;;;5083646;28;20408;-67
2022/09/12 12:13:57;;;;;;;36.20;22.80;;;24.70;99.90;;;;;;5081129;28;20044;-67
2022/09/12 12:16:30;;;;;;;32.03;21.98;;;24.80;99.90;;;;;;5085883;28;20093;-68
2022/09/12 12:19:01;;;;;;;29.92;22.10;;;24.80;99.90;;;;;;5085515;28;20048;-67
2022/09/12 12:21:33;;;;;;;29.52;20.83;;;25.00;99.90;;;;;;5083723;28;20037;-67
2022/09/12 12:24:08;;;;;;;33.22;19.83;;;25.10;99.90;;;;;;5084497;28;20044;-67
2022/09/12 12:26:39;;;;;;;34.53;21.85;;;25.20;99.90;;;;;;5082279;28;20075;-67
2022/09/12 12:29:15;;;;;;;32.22;19.85;;;25.20;99.90;;;;;;5067814;28;20045;-67
2022/09/12 12:32:01;;;;;;;36.10;22.30;;;25.20;99.90;;;;;;5087732;28;20127;-67
2022/09/12 12:34:33;;;;;;;28.98;19.55;;;25.30;98.70;;;;;;5073826;28;20219;-68
2022/09/12 12:37:19;;;;;;;33.15;20.50;;;25.30;99.90;;;;;;5085942;28;20046;-66
2022/09/12 12:39:51;;;;;;;33.53;21.35;;;25.20;98.70;;;;;;5085292;28;20040;-67
2022/09/12 12:42:35;;;;;;;32.83;21.23;;;25.20;99.90;;;;;;5085548;28;20121;-66
2022/09/12 12:45:16;;;;;;;23.48;17.63;;;25.20;96.50;;;;;;5097371;28;20420;-65
2022/09/12 12:47:45;;;;;;;31.35;19.08;;;25.20;99.90;;;;;;5084909;28;20048;-66
2022/09/12 12:50:19;;;;;;;26.80;19.08;;;25.10;99.90;;;;;;5086478;28;20032;-66
2022/09/12 12:53:03;;;;;;;28.15;18.63;;;25.20;99.90;;;;;;5084614;28;20059;-66
2022/09/12 12:55:37;;;;;;;31.67;20.25;;;25.20;92.10;;;;;;5087219;28;20144;-67
2022/09/12 12:58:05;;;;;;;27.42;20.42;;;25.20;98.20;;;;;;5089265;28;20043;-66
2022/09/12 13:00:38;;;;;;;37.40;23.15;;;25.30;98.80;;;;;;5085602;28;20052;-66